Time;durP1;ratioP1;P1;durP2;ratioP2;P2;SDS_P1;SDS_P2;PMS_P1;PMS_P2;Temp;Humidity;BMP_temperature;BMP_pressure;BME280_temperature;BME280_humidity;BME280_pressure;Samples;Min_cycle;Max_cycle;Signal;HPM_P1;HPM_P2
2023/05/26 00:00:21;;;;;;;18.38;3.83;;;13.70;60.90;;;;;;5030317;28;20025;-62
2023/05/26 00:02:47;;;;;;;19.55;4.95;;;13.70;61.00;;;;;;5027439;28;20149;-62
2023/05/26 00:05:16;;;;;;;15.27;4.20;;;13.60;61.00;;;;;;5027952;28;20442;-62
2023/05/26 00:07:42;;;;;;;16.23;4.70;;;13.60;61.00;;;;;;5024146;28;20033;-62
2023/05/26 00:10:09;;;;;;;16.55;4.15;;;13.60;61.10;;;;;;5027133;28;20018;-62
2023/05/26 00:12:36;;;;;;;20.20;4.07;;;13.60;61.20;;;;;;5031280;28;20026;-61
2023/05/26 00:15:02;;;;;;;17.30;4.32;;;13.60;61.30;;;;;;5031416;28;20021;-62
2023/05/26 00:17:28;;;;;;;13.07;3.63;;;13.60;61.40;;;;;;5020332;28;20034;-62
2023/05/26 00:19:54;;;;;;;17.60;4.05;;;13.50;61.40;;;;;;5029115;28;20027;-62
2023/05/26 00:22:20;;;;;;;17.10;4.38;;;13.50;61.50;;;;;;5033585;28;20362;-62
2023/05/26 00:24:47;;;;;;;11.02;3.97;;;13.50;61.70;;;;;;5031510;28;20029;-62
2023/05/26 00:27:13;;;;;;;19.50;4.70;;;13.40;61.70;;;;;;5024981;28;20038;-62
2023/05/26 00:29:39;;;;;;;18.67;3.85;;;13.40;61.70;;;;;;5019509;28;20113;-61
2023/05/26 00:32:05;;;;;;;20.77;4.43;;;13.40;61.70;;;;;;5033838;28;20057;-62
2023/05/26 00:34:33;;;;;;;17.85;3.95;;;13.40;61.70;;;;;;5020125;28;20040;-62
2023/05/26 00:37:00;;;;;;;20.35;4.95;;;13.40;61.80;;;;;;5029617;28;20052;-62
2023/05/26 00:39:27;;;;;;;14.35;4.13;;;13.40;61.80;;;;;;5014383;28;20125;-61
2023/05/26 00:41:53;;;;;;;15.75;3.92;;;13.30;61.80;;;;;;5031451;28;20029;-62
2023/05/26 00:44:21;;;;;;;18.83;4.50;;;13.30;61.80;;;;;;5024742;28;20112;-62
2023/05/26 00:46:46;;;;;;;18.30;4.30;;;13.30;61.90;;;;;;5029954;28;20454;-62
2023/05/26 00:49:12;;;;;;;18.33;4.80;;;13.30;61.90;;;;;;5017500;28;20047;-62
2023/05/26 00:51:38;;;;;;;14.00;3.88;;;13.30;61.90;;;;;;5029886;28;20057;-61
2023/05/26 00:54:06;;;;;;;23.83;4.90;;;13.20;61.90;;;;;;5032566;28;20029;-62
2023/05/26 00:56:34;;;;;;;18.55;4.18;;;13.20;61.90;;;;;;5032607;28;20034;-62
2023/05/26 00:59:02;;;;;;;17.38;4.15;;;13.20;62.60;;;;;;5016212;28;20029;-62
2023/05/26 01:01:32;;;;;;;16.40;3.97;;;13.20;62.10;;;;;;5028596;28;20443;-62
2023/05/26 01:03:58;;;;;;;15.50;4.57;;;13.10;62.10;;;;;;5031768;28;20025;-62
2023/05/26 01:06:25;;;;;;;17.85;4.22;;;13.10;62.20;;;;;;5011067;28;20037;-62
2023/05/26 01:08:51;;;;;;;18.98;4.32;;;13.10;62.30;;;;;;5011119;28;20032;-62
2023/05/26 01:11:21;;;;;;;16.17;3.97;;;13.10;62.40;;;;;;5030057;28;20109;-62
2023/05/26 01:14:03;;;;;;;14.68;3.95;;;13.00;62.30;;;;;;5017322;28;20037;-62
2023/05/26 01:16:39;;;;;;;19.17;4.45;;;13.00;62.50;;;;;;5032893;28;20068;-61
2023/05/26 01:19:34;;;;;;;16.08;3.92;;;13.00;62.60;;;;;;5025791;28;20030;-61
2023/05/26 01:22:32;;;;;;;13.55;3.88;;;13.00;62.70;;;;;;5029053;28;20098;-62
2023/05/26 01:25:31;;;;;;;15.45;4.43;;;12.90;62.70;;;;;;5003852;28;20331;-62
2023/05/26 01:28:15;;;;;;;15.57;3.85;;;12.90;62.70;;;;;;5031844;28;20120;-62
2023/05/26 01:30:43;;;;;;;14.48;3.55;;;12.90;62.70;;;;;;5016480;28;20033;-62
2023/05/26 01:33:09;;;;;;;16.75;4.28;;;12.80;62.80;;;;;;5032385;28;20408;-61
2023/05/26 01:35:35;;;;;;;20.02;4.28;;;12.80;62.90;;;;;;5031821;28;20021;-62
2023/05/26 01:38:01;;;;;;;16.73;4.57;;;12.80;63.00;;;;;;5035548;28;20360;-62
2023/05/26 01:40:28;;;;;;;14.80;3.70;;;12.80;63.10;;;;;;5023611;28;20359;-62
2023/05/26 01:42:56;;;;;;;18.95;3.85;;;12.70;63.00;;;;;;5013661;28;20094;-62
2023/05/26 01:45:25;;;;;;;14.95;4.03;;;12.80;63.10;;;;;;5044320;28;20044;-62
2023/05/26 01:47:57;;;;;;;14.18;4.28;;;12.80;63.20;;;;;;5035971;28;20029;-62
2023/05/26 01:50:37;;;;;;;14.82;4.13;;;12.70;63.20;;;;;;5010371;28;20375;-61
2023/05/26 01:53:09;;;;;;;19.30;4.10;;;12.70;63.20;;;;;;5027376;28;20029;-61
2023/05/26 01:55:38;;;;;;;;;;;12.70;63.30;;;;;;5034562;28;20025;-61
2023/05/26 01:58:05;;;;;;;14.70;3.63;;;12.70;63.20;;;;;;5034815;28;19991;-61
2023/05/26 02:00:35;;;;;;;16.58;4.32;;;12.60;63.30;;;;;;5028693;28;20401;-61
2023/05/26 02:03:01;;;;;;;17.60;4.57;;;12.60;63.40;;;;;;5033327;28;20504;-61
2023/05/26 02:05:27;;;;;;;15.18;4.50;;;12.60;63.40;;;;;;5018087;28;20076;-61
2023/05/26 02:07:53;;;;;;;12.45;3.40;;;12.60;63.40;;;;;;5033550;28;20123;-61
2023/05/26 02:10:18;;;;;;;15.75;4.32;;;12.60;63.60;;;;;;5028685;28;20025;-61
2023/05/26 02:12:44;;;;;;;12.77;4.10;;;12.60;63.60;;;;;;5023015;28;20155;-61
2023/05/26 02:15:10;;;;;;;15.95;3.78;;;12.60;63.70;;;;;;5023142;28;20099;-62
2023/05/26 02:17:36;;;;;;;13.20;4.18;;;12.50;63.70;;;;;;5021041;28;20042;-61
2023/05/26 02:20:05;;;;;;;23.25;4.75;;;12.60;63.80;;;;;;5016919;28;20039;-61
2023/05/26 02:22:32;;;;;;;18.73;4.93;;;12.50;63.80;;;;;;5026931;28;20112;-61
2023/05/26 02:24:58;;;;;;;17.60;3.75;;;12.50;63.90;;;;;;5032073;28;20112;-61
2023/05/26 02:27:23;;;;;;;22.13;5.03;;;12.50;64.10;;;;;;5008235;28;20497;-61
2023/05/26 02:29:49;;;;;;;17.38;4.85;;;12.50;64.10;;;;;;5032730;28;20030;-61
2023/05/26 02:32:15;;;;;;;17.80;4.30;;;12.50;64.10;;;;;;5028647;28;20026;-61
2023/05/26 02:34:41;;;;;;;16.48;4.40;;;12.50;64.20;;;;;;5030480;28;20027;-61
2023/05/26 02:37:06;;;;;;;16.50;4.20;;;12.40;64.20;;;;;;5013836;28;20026;-61
2023/05/26 02:39:32;;;;;;;12.57;4.25;;;12.40;64.30;;;;;;5041203;28;20017;-61
2023/05/26 02:41:59;;;;;;;15.82;4.57;;;12.40;64.30;;;;;;5037520;28;20025;-61
2023/05/26 02:44:24;;;;;;;20.35;4.80;;;12.40;64.40;;;;;;5017519;28;20025;-61
2023/05/26 02:46:50;;;;;;;16.05;4.13;;;12.40;64.50;;;;;;5031309;28;20024;-62
2023/05/26 02:49:16;;;;;;;13.50;4.63;;;12.40;64.50;;;;;;5037002;28;20090;-61
2023/05/26 02:51:44;;;;;;;14.10;4.70;;;12.40;64.60;;;;;;5038785;28;20022;-61
2023/05/26 02:54:09;;;;;;;18.92;3.80;;;12.30;64.60;;;;;;5048376;28;20040;-62
2023/05/26 02:56:35;;;;;;;18.15;5.15;;;12.30;64.70;;;;;;5029288;28;20112;-61
2023/05/26 02:59:01;;;;;;;20.00;4.82;;;12.30;64.70;;;;;;5053277;28;20028;-61
2023/05/26 03:01:27;;;;;;;15.50;4.03;;;12.30;64.80;;;;;;5038895;28;20045;-61
2023/05/26 03:03:53;;;;;;;14.45;4.38;;;12.30;64.80;;;;;;5046344;28;20033;-61
2023/05/26 03:06:19;;;;;;;15.90;4.05;;;12.30;65.00;;;;;;5011773;28;20363;-61
2023/05/26 03:08:45;;;;;;;17.13;3.83;;;12.30;64.80;;;;;;5033723;28;20037;-61
2023/05/26 03:11:11;;;;;;;22.05;4.25;;;12.20;64.70;;;;;;5034886;28;20025;-61
2023/05/26 03:13:40;;;;;;;18.25;4.47;;;12.30;64.90;;;;;;5044155;28;20025;-61
2023/05/26 03:16:06;;;;;;;18.95;4.82;;;12.20;64.80;;;;;;5037476;28;20453;-61
2023/05/26 03:18:32;;;;;;;19.95;4.25;;;12.20;64.80;;;;;;5040032;28;20036;-61
2023/05/26 03:20:58;;;;;;;18.25;4.88;;;12.20;64.90;;;;;;5053092;28;20021;-61
2023/05/26 03:23:24;;;;;;;14.18;3.80;;;12.20;64.90;;;;;;5037296;28;20124;-61
2023/05/26 03:25:50;;;;;;;20.27;4.72;;;12.20;65.00;;;;;;5033114;28;20036;-61
2023/05/26 03:28:16;;;;;;;18.08;5.18;;;12.20;65.10;;;;;;5038293;28;20021;-61
2023/05/26 03:30:42;;;;;;;16.73;5.13;;;12.10;65.10;;;;;;5052880;28;20041;-61
2023/05/26 03:33:08;;;;;;;14.10;4.18;;;12.10;65.10;;;;;;5039850;28;20048;-61
2023/05/26 03:35:34;;;;;;;20.00;4.90;;;12.10;65.20;;;;;;5022075;28;20029;-61
2023/05/26 03:38:00;;;;;;;17.33;4.00;;;12.10;65.30;;;;;;5038293;28;20021;-61
2023/05/26 03:40:26;;;;;;;14.35;4.18;;;12.10;65.30;;;;;;5036374;28;20033;-61
2023/05/26 03:42:52;;;;;;;16.75;4.93;;;12.10;65.30;;;;;;5016845;28;20406;-61
2023/05/26 03:45:17;;;;;;;15.52;3.97;;;12.10;65.30;;;;;;5049786;28;20017;-61
2023/05/26 03:47:44;;;;;;;16.45;3.85;;;12.10;65.30;;;;;;5034837;28;20057;-61
2023/05/26 03:50:13;;;;;;;18.05;5.05;;;12.10;65.30;;;;;;5026733;28;20099;-61
2023/05/26 03:52:39;;;;;;;15.85;4.10;;;12.00;65.30;;;;;;5025368;28;20093;-61
2023/05/26 03:55:09;;;;;;;17.52;4.85;;;12.00;65.40;;;;;;5024902;28;20033;-61
2023/05/26 03:57:36;;;;;;;15.45;4.63;;;12.00;65.40;;;;;;5041813;28;20065;-61
2023/05/26 04:00:04;;;;;;;15.35;4.30;;;12.00;65.40;;;;;;5032753;28;21933;-61
2023/05/26 04:02:31;;;;;;;15.20;4.05;;;12.00;65.40;;;;;;5030892;28;20029;-61
2023/05/26 04:04:57;;;;;;;18.23;4.75;;;12.00;65.40;;;;;;5032332;28;20095;-61
2023/05/26 04:07:23;;;;;;;14.07;4.00;;;12.00;65.40;;;;;;5028348;28;20026;-61
2023/05/26 04:09:49;;;;;;;16.17;3.92;;;12.10;65.40;;;;;;5032326;28;20110;-61
2023/05/26 04:12:15;;;;;;;17.52;4.40;;;12.00;65.40;;;;;;5032708;28;20032;-61
2023/05/26 04:14:41;;;;;;;16.95;3.53;;;12.00;65.40;;;;;;5026663;28;20033;-61
2023/05/26 04:17:07;;;;;;;16.23;4.68;;;12.00;65.50;;;;;;5029912;28;20124;-61
2023/05/26 04:19:33;;;;;;;17.42;4.43;;;12.00;65.40;;;;;;5023840;28;20045;-61
2023/05/26 04:21:59;;;;;;;17.70;3.75;;;12.00;65.40;;;;;;5033321;28;20102;-61
2023/05/26 04:24:26;;;;;;;19.38;4.40;;;12.00;65.50;;;;;;5026736;28;20025;-61
2023/05/26 04:26:54;;;;;;;17.52;4.35;;;12.10;65.60;;;;;;5030103;28;20049;-61
2023/05/26 04:29:40;;;;;;;19.92;4.32;;;12.10;65.70;;;;;;5017361;28;20033;-61
2023/05/26 04:32:23;;;;;;;18.23;4.40;;;12.10;65.50;;;;;;5027184;28;20030;-61
2023/05/26 04:34:57;;;;;;;18.48;3.85;;;12.10;65.50;;;;;;5020744;28;20109;-61
2023/05/26 04:37:33;;;;;;;18.45;4.13;;;12.10;65.50;;;;;;5028185;28;20041;-61
2023/05/26 04:40:00;;;;;;;17.65;3.75;;;12.10;65.40;;;;;;4998539;28;20034;-61
2023/05/26 04:42:26;;;;;;;15.00;4.55;;;12.20;65.50;;;;;;5036502;28;20489;-61
2023/05/26 04:44:54;;;;;;;20.00;4.28;;;12.20;65.40;;;;;;5039890;28;20032;-61
2023/05/26 04:47:20;;;;;;;15.00;3.97;;;12.20;65.40;;;;;;5056025;28;20041;-61
2023/05/26 04:49:46;;;;;;;17.95;4.88;;;12.20;65.40;;;;;;5035420;28;20466;-61
2023/05/26 04:52:13;;;;;;;17.05;4.60;;;12.20;65.30;;;;;;5036469;28;20026;-61
2023/05/26 04:54:42;;;;;;;17.67;4.88;;;12.20;65.30;;;;;;5035991;28;20043;-61
2023/05/26 04:57:08;;;;;;;19.42;4.05;;;12.20;65.30;;;;;;5042636;28;20021;-61
2023/05/26 04:59:56;;;;;;;12.82;4.15;;;12.30;65.30;;;;;;5031763;28;20034;-61
2023/05/26 05:02:22;;;;;;;15.68;4.55;;;12.30;65.20;;;;;;5031528;28;20040;-61
2023/05/26 05:05:08;;;;;;;16.02;4.43;;;12.30;65.20;;;;;;5042738;28;20033;-61
2023/05/26 05:07:34;;;;;;;16.75;4.32;;;12.30;65.20;;;;;;5055723;28;20033;-61
2023/05/26 05:10:00;;;;;;;14.63;4.07;;;12.40;65.10;;;;;;5031135;28;20361;-61
2023/05/26 05:12:27;;;;;;;18.02;4.50;;;12.50;65.00;;;;;;5030893;28;20021;-62
2023/05/26 05:14:53;;;;;;;16.85;4.63;;;12.50;64.80;;;;;;5025343;28;20048;-61
2023/05/26 05:17:19;;;;;;;13.25;3.80;;;12.60;64.60;;;;;;5054513;28;20036;-61
2023/05/26 05:19:45;;;;;;;18.02;4.00;;;12.70;64.60;;;;;;5039938;28;20116;-61
2023/05/26 05:22:12;;;;;;;20.13;4.35;;;12.70;64.40;;;;;;5045094;28;20033;-61
2023/05/26 05:24:39;;;;;;;14.80;4.18;;;12.80;64.30;;;;;;5034162;28;20076;-61
2023/05/26 05:27:05;;;;;;;19.77;4.50;;;12.90;64.20;;;;;;5027342;28;20296;-68
2023/05/26 05:29:31;;;;;;;18.15;4.00;;;12.90;64.10;;;;;;5034705;28;20079;-66
2023/05/26 05:32:00;;;;;;;18.30;4.22;;;13.00;64.00;;;;;;5033723;28;20022;-64
2023/05/26 05:34:29;;;;;;;17.10;4.10;;;13.00;63.90;;;;;;5031741;28;20113;-65
2023/05/26 05:36:54;;;;;;;18.90;4.63;;;13.10;63.70;;;;;;5035508;28;20132;-65
2023/05/26 05:39:20;;;;;;;15.18;4.15;;;13.20;63.60;;;;;;5031774;28;20514;-65
2023/05/26 05:41:46;;;;;;;19.08;4.53;;;13.20;63.30;;;;;;5032910;28;20071;-65
2023/05/26 05:44:13;;;;;;;16.05;4.53;;;13.30;63.40;;;;;;5022307;28;20026;-64
2023/05/26 05:46:39;;;;;;;20.00;4.45;;;13.40;63.30;;;;;;5034088;28;20032;-64
2023/05/26 05:49:18;;;;;;;15.50;4.20;;;13.40;63.10;;;;;;5029232;28;20046;-63
2023/05/26 05:51:46;;;;;;;15.30;4.15;;;13.50;63.00;;;;;;5037787;28;20112;-64
2023/05/26 05:54:12;;;;;;;18.40;4.13;;;13.50;62.80;;;;;;5035433;28;20105;-64
2023/05/26 05:56:38;;;;;;;16.52;3.78;;;13.60;62.60;;;;;;5048671;28;20029;-64
2023/05/26 05:59:06;;;;;;;17.45;4.13;;;13.60;62.60;;;;;;5030401;28;20030;-64
2023/05/26 06:01:32;;;;;;;18.95;4.28;;;13.70;62.50;;;;;;5032771;28;20025;-64
2023/05/26 06:03:57;;;;;;;18.73;4.25;;;13.70;62.30;;;;;;5034917;28;20056;-64
2023/05/26 06:06:24;;;;;;;14.57;4.15;;;13.80;62.10;;;;;;5035454;28;20124;-67
2023/05/26 06:08:49;;;;;;;17.75;4.47;;;13.90;61.80;;;;;;5014633;28;20153;-68
2023/05/26 06:11:15;;;;;;;21.38;5.00;;;14.00;61.70;;;;;;5027417;28;20385;-65
2023/05/26 06:13:43;;;;;;;15.48;3.95;;;14.10;61.40;;;;;;5029284;28;20343;-67
2023/05/26 06:16:11;;;;;;;19.55;4.18;;;14.20;61.30;;;;;;5032828;28;20116;-65
2023/05/26 06:18:37;;;;;;;17.05;3.85;;;14.20;61.10;;;;;;5028154;28;20101;-67
2023/05/26 06:21:03;;;;;;;12.52;4.13;;;14.40;61.10;;;;;;5031586;28;20030;-67
2023/05/26 06:23:29;;;;;;;12.85;3.67;;;14.50;60.80;;;;;;5007042;28;20026;-67
2023/05/26 06:25:55;;;;;;;21.70;7.72;;;14.70;60.40;;;;;;5031991;28;20034;-70
2023/05/26 06:28:22;;;;;;;23.40;12.30;;;14.90;59.90;;;;;;5030841;28;20447;-68
2023/05/26 06:30:48;;;;;;;24.60;10.70;;;15.10;59.30;;;;;;5014920;28;20018;-68
2023/05/26 06:33:43;;;;;;;19.00;7.03;;;15.30;58.90;;;;;;5020171;28;20059;-68
2023/05/26 06:36:10;;;;;;;17.20;5.72;;;15.40;58.50;;;;;;5041680;28;20039;-68
2023/05/26 06:38:36;;;;;;;20.38;4.63;;;15.30;58.30;;;;;;5013557;28;20044;-68
2023/05/26 06:41:06;;;;;;;17.48;4.97;;;15.40;58.10;;;;;;5028297;28;20421;-68
2023/05/26 06:43:32;;;;;;;15.20;4.05;;;15.40;57.80;;;;;;5011082;28;20112;-69
2023/05/26 06:45:58;;;;;;;15.82;4.32;;;15.40;57.70;;;;;;5043434;28;20399;-69
2023/05/26 06:48:24;;;;;;;19.30;4.00;;;15.40;57.60;;;;;;5024580;28;20052;-68
2023/05/26 06:51:06;;;;;;;20.40;4.70;;;15.50;57.50;;;;;;5023155;28;20037;-67
2023/05/26 06:53:34;;;;;;;16.38;4.20;;;15.60;57.30;;;;;;5021184;28;20037;-66
2023/05/26 06:56:00;;;;;;;22.80;4.70;;;15.60;57.10;;;;;;5031231;28;20118;-66
2023/05/26 06:58:27;;;;;;;17.70;4.40;;;15.70;56.90;;;;;;5028459;28;20110;-66
2023/05/26 07:01:01;;;;;;;18.73;3.90;;;15.70;56.80;;;;;;5015748;28;20025;-67
2023/05/26 07:03:30;;;;;;;15.27;4.10;;;15.70;56.60;;;;;;5016432;28;20455;-67
2023/05/26 07:05:57;;;;;;;15.57;3.72;;;15.60;56.60;;;;;;5017026;28;20017;-66
2023/05/26 07:08:24;;;;;;;18.77;4.13;;;15.70;56.70;;;;;;5007954;28;20525;-66
2023/05/26 07:10:52;;;;;;;16.60;3.60;;;15.60;56.60;;;;;;5030475;28;20125;-67
2023/05/26 07:13:19;;;;;;;15.55;4.10;;;15.70;56.50;;;;;;5027956;28;20037;-65
2023/05/26 07:15:45;;;;;;;14.75;4.07;;;16.00;56.00;;;;;;5021349;28;20121;-67
2023/05/26 07:18:13;;;;;;;16.42;4.25;;;16.20;55.40;;;;;;5023279;28;20084;-66
2023/05/26 07:20:39;;;;;;;14.93;4.18;;;16.30;55.30;;;;;;5019525;28;20022;-66
2023/05/26 07:23:05;;;;;;;14.13;4.25;;;16.50;54.70;;;;;;5025235;28;20025;-67
2023/05/26 07:25:31;;;;;;;15.13;3.75;;;16.50;54.70;;;;;;5027716;28;20033;-66
2023/05/26 07:27:58;;;;;;;16.67;4.40;;;16.40;54.70;;;;;;5006438;28;20407;-67
2023/05/26 07:30:24;;;;;;;10.77;3.70;;;16.50;54.60;;;;;;5026947;28;20033;-65
2023/05/26 07:33:02;;;;;;;13.18;3.92;;;16.50;54.60;;;;;;5028810;28;20365;-66
2023/05/26 07:35:28;;;;;;;12.88;3.25;;;16.70;54.40;;;;;;5015507;28;20022;-68
2023/05/26 07:37:58;;;;;;;14.23;4.47;;;17.00;53.80;;;;;;5023117;28;20029;-68
2023/05/26 07:40:23;;;;;;;15.73;4.20;;;17.40;53.00;;;;;;5027674;28;20337;-68
2023/05/26 07:42:49;;;;;;;10.40;4.00;;;17.60;52.40;;;;;;5026330;28;20030;-67
2023/05/26 07:45:15;;;;;;;12.25;3.30;;;17.80;52.20;;;;;;5052314;28;20039;-68
2023/05/26 07:47:41;;;;;;;13.60;3.15;;;17.90;52.20;;;;;;5025765;28;20034;-68
2023/05/26 07:50:07;;;;;;;12.48;4.05;;;17.80;52.30;;;;;;5039853;28;20045;-67
2023/05/26 07:52:34;;;;;;;14.98;3.67;;;17.70;52.60;;;;;;5023936;28;20504;-67
2023/05/26 07:54:59;;;;;;;18.35;4.97;;;17.60;52.70;;;;;;5036908;28;20025;-66
2023/05/26 07:57:25;;;;;;;16.23;3.90;;;17.60;52.80;;;;;;5031096;28;20040;-67
2023/05/26 07:59:51;;;;;;;11.65;4.00;;;17.90;52.60;;;;;;5026454;28;20028;-67
2023/05/26 08:02:17;;;;;;;13.88;3.67;;;18.10;52.00;;;;;;5052361;28;20439;-67
2023/05/26 08:04:42;;;;;;;11.98;3.40;;;18.30;51.50;;;;;;5053669;28;20164;-67
2023/05/26 08:07:08;;;;;;;15.35;4.00;;;18.40;51.20;;;;;;5052502;28;20464;-68
2023/05/26 08:09:34;;;;;;;15.23;3.90;;;18.60;51.00;;;;;;5054257;28;20036;-67
2023/05/26 08:12:00;;;;;;;15.23;3.35;;;18.70;50.60;;;;;;5050556;28;20086;-67
2023/05/26 08:14:26;;;;;;;14.95;3.92;;;18.90;50.50;;;;;;5054270;28;20029;-68
2023/05/26 08:16:52;;;;;;;15.40;4.18;;;19.10;50.10;;;;;;5040429;28;20025;-68
2023/05/26 08:19:18;;;;;;;13.25;3.72;;;19.20;49.30;;;;;;5020478;28;20041;-67
2023/05/26 08:21:44;;;;;;;17.58;3.47;;;19.30;49.10;;;;;;5026720;28;20030;-67
2023/05/26 08:24:10;;;;;;;13.27;3.60;;;19.40;48.80;;;;;;5037866;28;20099;-67
2023/05/26 08:26:35;;;;;;;14.45;3.63;;;19.50;48.40;;;;;;5026648;28;20034;-67
2023/05/26 08:29:01;;;;;;;13.68;3.97;;;19.60;48.30;;;;;;5030937;28;20026;-67
2023/05/26 08:31:27;;;;;;;13.15;3.97;;;19.70;48.00;;;;;;5033956;28;20038;-67
2023/05/26 08:33:53;;;;;;;14.15;3.30;;;19.80;47.70;;;;;;5035271;28;20018;-67
2023/05/26 08:36:19;;;;;;;12.55;3.38;;;19.90;47.40;;;;;;5033539;28;20036;-67
2023/05/26 08:38:46;;;;;;;12.93;3.72;;;20.00;47.20;;;;;;5019911;28;20044;-67
2023/05/26 08:41:17;;;;;;;19.33;4.38;;;20.10;47.00;;;;;;5032777;28;20077;-67
2023/05/26 08:43:51;;;;;;;12.95;3.58;;;20.20;46.70;;;;;;5030111;28;20046;-67
2023/05/26 08:46:18;;;;;;;11.80;3.33;;;20.30;46.70;;;;;;5030883;28;20044;-67
2023/05/26 08:48:46;;;;;;;13.20;3.20;;;20.40;46.60;;;;;;5056088;28;20044;-68
2023/05/26 08:51:12;;;;;;;12.20;4.00;;;20.50;46.40;;;;;;5041328;28;20048;-68
2023/05/26 08:53:39;;;;;;;11.57;3.47;;;20.60;46.20;;;;;;5046373;28;20457;-68
2023/05/26 08:56:07;;;;;;;13.38;3.92;;;20.70;45.70;;;;;;5036791;28;20331;-68
2023/05/26 08:58:34;;;;;;;13.32;4.10;;;20.80;45.60;;;;;;5054873;28;20384;-68
2023/05/26 09:01:03;;;;;;;13.90;3.25;;;20.90;45.40;;;;;;5056298;28;20330;-68
2023/05/26 09:03:29;;;;;;;12.68;3.40;;;21.00;44.90;;;;;;5054102;28;20029;-67
2023/05/26 09:05:55;;;;;;;13.88;3.40;;;21.10;44.60;;;;;;5056896;28;20079;-67
2023/05/26 09:08:21;;;;;;;12.98;4.07;;;21.20;44.20;;;;;;5043206;28;20041;-67
2023/05/26 09:10:47;;;;;;;12.50;3.20;;;21.30;43.90;;;;;;5039769;28;20040;-68
2023/05/26 09:13:18;;;;;;;9.88;3.33;;;21.30;43.80;;;;;;5041408;28;20090;-67
2023/05/26 09:15:52;;;;;;;11.23;3.67;;;21.40;43.60;;;;;;5056694;28;20033;-68
2023/05/26 09:18:18;;;;;;;13.52;3.00;;;21.40;43.10;;;;;;5057204;28;20040;-67
2023/05/26 09:20:46;;;;;;;11.73;3.20;;;21.40;42.90;;;;;;5055687;28;20025;-67
2023/05/26 09:23:15;;;;;;;12.32;3.55;;;21.50;42.90;;;;;;5041331;28;20036;-67
2023/05/26 09:25:43;;;;;;;12.68;3.92;;;21.60;42.50;;;;;;5037532;28;20045;-67
2023/05/26 09:28:14;;;;;;;11.48;3.47;;;21.60;42.30;;;;;;5023303;28;20394;-69
2023/05/26 09:30:46;;;;;;;10.90;3.25;;;21.70;41.90;;;;;;5018677;28;20163;-68
2023/05/26 09:33:15;;;;;;;9.52;3.13;;;21.80;41.90;;;;;;5031415;28;21385;-66
2023/05/26 09:35:49;;;;;;;11.82;3.63;;;22.00;41.90;;;;;;5014226;28;20108;-68
2023/05/26 09:38:17;;;;;;;11.48;3.15;;;22.10;41.60;;;;;;5029521;28;20021;-67
2023/05/26 09:40:44;;;;;;;8.88;3.10;;;22.20;41.60;;;;;;5009704;28;20029;-67
2023/05/26 09:43:10;;;;;;;10.30;2.75;;;22.30;41.50;;;;;;5033890;28;20368;-67
2023/05/26 09:45:37;;;;;;;10.48;2.97;;;22.40;41.50;;;;;;5024336;28;20025;-66
2023/05/26 09:48:04;;;;;;;11.93;2.83;;;22.50;41.20;;;;;;5022268;28;20395;-67
2023/05/26 09:50:34;;;;;;;11.77;3.42;;;22.50;41.20;;;;;;5034672;28;20033;-67
2023/05/26 09:53:02;;;;;;;10.25;3.05;;;22.60;40.90;;;;;;5030873;28;20049;-67
2023/05/26 09:55:29;;;;;;;11.25;3.28;;;22.70;40.60;;;;;;5029944;28;20021;-66
2023/05/26 09:58:04;;;;;;;10.50;3.15;;;22.80;40.60;;;;;;5032764;28;20087;-68
2023/05/26 10:00:32;;;;;;;12.55;3.25;;;22.80;40.20;;;;;;5032729;28;20029;-67
2023/05/26 10:02:59;;;;;;;10.45;3.00;;;22.90;40.30;;;;;;5026925;28;20030;-66
2023/05/26 10:05:26;;;;;;;9.07;3.35;;;22.90;40.30;;;;;;5031837;28;20057;-66
2023/05/26 10:07:52;;;;;;;14.02;3.88;;;23.00;40.20;;;;;;5021178;28;20034;-67
2023/05/26 10:10:18;;;;;;;11.65;3.58;;;23.10;40.10;;;;;;5029359;28;20431;-66
2023/05/26 10:12:45;;;;;;;10.27;3.00;;;23.10;40.30;;;;;;5027687;28;20150;-67
2023/05/26 10:15:11;;;;;;;9.63;3.05;;;23.20;40.40;;;;;;5035743;28;20109;-66
2023/05/26 10:17:38;;;;;;;11.20;3.33;;;23.30;40.10;;;;;;5029536;28;20061;-66
2023/05/26 10:20:04;;;;;;;10.73;3.40;;;23.40;39.70;;;;;;5030632;28;20047;-66
2023/05/26 10:22:51;;;;;;;9.52;3.00;;;23.40;39.50;;;;;;5028639;28;20104;-66
2023/05/26 10:25:49;;;;;;;12.18;3.45;;;23.40;39.70;;;;;;5031012;28;20516;-66
2023/05/26 10:28:27;;;;;;;14.57;3.35;;;23.40;39.90;;;;;;5026858;28;20573;-66
2023/05/26 10:31:01;;;;;;;10.90;3.22;;;23.50;39.80;;;;;;5013055;28;20456;-66
2023/05/26 10:33:43;;;;;;;11.35;3.10;;;23.50;39.60;;;;;;5023104;28;20030;-66
2023/05/26 10:36:14;;;;;;;11.63;3.47;;;23.40;39.50;;;;;;5026566;28;20064;-66
2023/05/26 10:38:46;;;;;;;8.80;2.72;;;23.40;39.60;;;;;;5029296;28;20026;-66
2023/05/26 10:41:28;;;;;;;11.18;2.92;;;23.50;39.50;;;;;;5030323;28;20034;-66
2023/05/26 10:43:54;;;;;;;10.60;2.95;;;23.60;39.50;;;;;;5024359;28;20083;-66
2023/05/26 10:46:19;;;;;;;17.08;3.70;;;23.50;39.40;;;;;;5022513;28;20450;-65
2023/05/26 10:48:57;;;;;;;9.57;3.05;;;23.60;39.50;;;;;;5044471;28;20025;-66
2023/05/26 10:51:29;;;;;;;11.90;3.35;;;23.70;39.40;;;;;;5048429;28;20041;-67
2023/05/26 10:53:56;;;;;;;10.60;2.88;;;23.70;39.40;;;;;;5028263;28;20036;-67
2023/05/26 10:56:37;;;;;;;8.13;2.70;;;23.80;38.80;;;;;;5031360;28;20343;-67
2023/05/26 10:59:03;;;;;;;11.63;2.90;;;23.80;38.10;;;;;;5022912;28;20140;-68
2023/05/26 11:01:31;;;;;;;8.43;2.60;;;23.80;38.10;;;;;;5034009;28;20342;-67
2023/05/26 11:04:08;;;;;;;10.70;2.85;;;23.90;37.80;;;;;;5030698;28;20112;-67
2023/05/26 11:06:39;;;;;;;10.30;2.80;;;23.90;37.60;;;;;;5034608;28;20124;-67
2023/05/26 11:09:08;;;;;;;12.60;2.92;;;23.90;37.50;;;;;;5017355;28;20034;-67
2023/05/26 11:11:39;;;;;;;11.18;2.67;;;23.90;37.30;;;;;;5031203;28;20021;-68
2023/05/26 11:14:10;;;;;;;10.88;3.08;;;23.90;37.30;;;;;;5026174;28;20099;-67
2023/05/26 11:16:43;;;;;;;10.13;2.88;;;23.90;37.10;;;;;;5016269;28;20021;-67
2023/05/26 11:19:10;;;;;;;8.45;2.90;;;23.90;36.80;;;;;;5021772;28;20298;-68
2023/05/26 11:21:37;;;;;;;8.50;2.97;;;23.80;36.90;;;;;;5026371;28;21423;-67
2023/05/26 11:24:04;;;;;;;10.65;2.92;;;23.80;37.00;;;;;;5033544;28;20033;-67
2023/05/26 11:26:31;;;;;;;10.52;3.15;;;23.80;37.00;;;;;;5024303;28;20419;-67
2023/05/26 11:29:00;;;;;;;8.65;2.90;;;23.80;36.70;;;;;;5033123;28;20108;-67
2023/05/26 11:31:26;;;;;;;9.02;2.60;;;23.80;36.50;;;;;;5024900;28;20057;-67
2023/05/26 11:33:52;;;;;;;8.80;3.13;;;23.80;36.40;;;;;;5017103;28;20029;-67
2023/05/26 11:36:19;;;;;;;9.13;2.67;;;23.80;36.30;;;;;;5024184;28;20595;-67
2023/05/26 11:38:49;;;;;;;12.13;2.70;;;23.80;36.50;;;;;;5019802;28;20342;-68
2023/05/26 11:41:16;;;;;;;13.88;3.35;;;23.80;36.70;;;;;;5023535;28;20339;-67
2023/05/26 11:43:45;;;;;;;12.57;3.33;;;23.80;36.70;;;;;;5032045;28;20030;-67
2023/05/26 11:46:14;;;;;;;11.57;2.65;;;23.80;36.80;;;;;;5029235;28;20359;-67
2023/05/26 11:48:42;;;;;;;10.02;3.40;;;23.70;36.70;;;;;;5025145;28;20021;-67
2023/05/26 11:51:09;;;;;;;11.45;3.45;;;23.70;36.40;;;;;;5026462;28;20041;-68
2023/05/26 11:53:35;;;;;;;12.85;2.95;;;23.60;36.60;;;;;;5021068;28;20055;-68
2023/05/26 11:56:05;;;;;;;8.95;2.70;;;23.60;36.60;;;;;;5027313;28;20032;-67
2023/05/26 11:58:39;;;;;;;9.80;2.60;;;23.60;36.70;;;;;;5020856;28;20053;-66
2023/05/26 12:01:06;;;;;;;8.80;2.60;;;23.50;37.10;;;;;;5024902;28;20037;-65
2023/05/26 12:03:36;;;;;;;13.05;3.20;;;23.50;37.50;;;;;;5032709;28;20022;-65
2023/05/26 12:06:17;;;;;;;10.73;2.97;;;23.50;37.90;;;;;;5026309;28;20029;-65
2023/05/26 12:08:47;;;;;;;;;;;23.50;38.10;;;;;;5043892;28;20032;-65
2023/05/26 12:11:37;;;;;;;9.75;2.60;;;23.50;38.20;;;;;;5027485;28;19920;-66
2023/05/26 12:14:05;;;;;;;8.60;2.50;;;23.40;38.20;;;;;;5017857;28;20480;-65
2023/05/26 12:16:34;;;;;;;7.20;2.65;;;23.40;38.20;;;;;;5037194;28;20029;-64
2023/05/26 12:19:04;;;;;;;9.13;3.03;;;23.30;38.30;;;;;;5025157;28;20112;-67
2023/05/26 12:21:31;;;;;;;8.85;2.67;;;23.30;38.40;;;;;;5018964;28;20402;-66
2023/05/26 12:23:58;;;;;;;9.45;2.95;;;23.20;38.30;;;;;;5027290;28;20331;-67
2023/05/26 12:26:27;;;;;;;11.82;2.70;;;23.10;38.40;;;;;;5018632;28;20129;-66
2023/05/26 12:29:13;;;;;;;9.13;2.95;;;23.00;38.60;;;;;;5020406;28;20430;-67
2023/05/26 12:31:48;;;;;;;10.13;3.10;;;23.00;38.90;;;;;;5028080;28;20453;-67
2023/05/26 12:34:17;;;;;;;8.38;2.65;;;22.90;38.90;;;;;;5019200;28;20029;-67
2023/05/26 12:36:44;;;;;;;9.18;3.10;;;22.80;39.20;;;;;;5029693;28;20029;-67
2023/05/26 12:39:10;;;;;;;8.48;2.72;;;22.80;39.20;;;;;;5027997;28;20025;-67
2023/05/26 12:41:36;;;;;;;9.52;2.88;;;22.80;39.20;;;;;;5005574;28;20022;-67
2023/05/26 12:44:03;;;;;;;10.50;2.83;;;22.70;39.20;;;;;;5023253;28;20533;-67